Continental Highway — H9LY — position and weather

sailwx.info

Track history (hours):
 
Tides and Currents Weather Stations Pressure Air Temp Water Temp Dewpoint Dewpoint Depression Visibility Wind Speed Wind Dir Waves Ship Positions

Continental Highway

Last reported at 2016-Nov-05 12:33 UTC. Time now 2016-Dec-07 08:40 UTC.
Position N 09°16' W 079°55'.
Warning: this ship's position is 31 days out of date.

Length 199.9 m; beam 32.2 m.

Type: Cargo ship. MMSI: 351223000.

Date/timePositionNaut miles runAvg speedWind from/ knotsBaromVisibWave heightAir tempDewpointWater temp
2016-Nov-05 12:33N 09°16' W 079°55'0 0.4
2016-Nov-05 11:33N 09°17' W 079°55'3 3.2
2016-Nov-05 10:33N 09°20' W 079°55'6 6.0
2016-Nov-05 09:33N 09°26' W 079°55'3 3.3
2016-Nov-05 08:33N 09°24' W 079°58'0 0.2
2016-Nov-05 07:33N 09°24' W 079°58'0 0.0
2016-Nov-05 04:30N 09°24' W 079°58'0 0.0
2016-Nov-05 02:33N 09°24' W 079°58'0 0.0
2016-Nov-05 01:33N 09°24' W 079°58'9 4.3
2016-Nov-04 23:33N 09°31' W 079°53'  
2016-Oct-31 03:30N 40°25' W 073°47'23 3.4
2016-Oct-30 20:33N 40°41' W 074°08'0 0.0
2016-Oct-30 13:33N 40°41' W 074°08'0 0.0
2016-Oct-30 12:33N 40°41' W 074°08'0 0.0
2016-Oct-30 11:30N 40°41' W 074°08'0 0.0
2016-Oct-30 08:33N 40°41' W 074°08'0 0.0
2016-Oct-30 07:33N 40°41' W 074°08'0 0.0
2016-Oct-30 02:33N 40°41' W 074°08'2 1.0
2016-Oct-30 00:34N 40°39' W 074°09'5 5.0
2016-Oct-29 23:33N 40°37' W 074°03'1111.0
2016-Oct-29 22:33N 40°29' W 073°53'8 7.5
2016-Oct-29 21:33N 40°23' W 073°47'1010.0
2016-Oct-29 20:33N 40°13' W 073°45'1110.7
2016-Oct-29 19:31N 40°02' W 073°45'1717.3
2016-Oct-29 18:33N 39°45' W 073°43'4117.6
2016-Oct-29 16:15N 39°05' W 073°52'2716.2
2016-Oct-29 14:33N 38°38' W 073°58'5016.2
2016-Oct-29 11:29N 37°50' W 074°10'3115.8
2016-Oct-29 09:32N 37°19' W 074°16'  
Track history (hours):
 
Tides and Currents Weather Stations Pressure Air Temp Water Temp Dewpoint Dewpoint Depression Visibility Wind Speed Wind Dir Waves Ship Positions

Continental Highway

Last reported at 2016-Nov-05 12:33 UTC. Time now 2016-Dec-07 08:40 UTC.
Position N 09°16' W 079°55'.
Warning: this ship's position is 31 days out of date.

Length 199.9 m; beam 32.2 m.

Type: Cargo ship. MMSI: 351223000.

Date/timePositionNaut miles runAvg speedWind from/ knotsBaromVisibWave heightAir tempDewpointWater temp
2016-Nov-05 12:33N 09°16' W 079°55'0 0.4
2016-Nov-05 11:33N 09°17' W 079°55'3 3.2
2016-Nov-05 10:33N 09°20' W 079°55'6 6.0
2016-Nov-05 09:33N 09°26' W 079°55'3 3.3
2016-Nov-05 08:33N 09°24' W 079°58'0 0.2
2016-Nov-05 07:33N 09°24' W 079°58'0 0.0
2016-Nov-05 04:30N 09°24' W 079°58'0 0.0
2016-Nov-05 02:33N 09°24' W 079°58'0 0.0
2016-Nov-05 01:33N 09°24' W 079°58'9 4.3
2016-Nov-04 23:33N 09°31' W 079°53'  
2016-Oct-31 03:30N 40°25' W 073°47'23 3.4
2016-Oct-30 20:33N 40°41' W 074°08'0 0.0
2016-Oct-30 13:33N 40°41' W 074°08'0 0.0
2016-Oct-30 12:33N 40°41' W 074°08'0 0.0
2016-Oct-30 11:30N 40°41' W 074°08'0 0.0
2016-Oct-30 08:33N 40°41' W 074°08'0 0.0
2016-Oct-30 07:33N 40°41' W 074°08'0 0.0
2016-Oct-30 02:33N 40°41' W 074°08'2 1.0
2016-Oct-30 00:34N 40°39' W 074°09'5 5.0
2016-Oct-29 23:33N 40°37' W 074°03'1111.0
2016-Oct-29 22:33N 40°29' W 073°53'8 7.5
2016-Oct-29 21:33N 40°23' W 073°47'1010.0
2016-Oct-29 20:33N 40°13' W 073°45'1110.7
2016-Oct-29 19:31N 40°02' W 073°45'1717.3
2016-Oct-29 18:33N 39°45' W 073°43'4117.6
2016-Oct-29 16:15N 39°05' W 073°52'2716.2
2016-Oct-29 14:33N 38°38' W 073°58'5016.2
2016-Oct-29 11:29N 37°50' W 074°10'3115.8
2016-Oct-29 09:32N 37°19' W 074°16'  

Dump ship's entire track history